sensor_id;sensor_type;location;lat;lon;timestamp;P1;durP1;ratioP1;P2;durP2;ratioP2
42912;SDS011;50720;54.324;18.558;2023-04-01T00:02:20;35.35;;;9.23;;
42912;SDS011;50720;54.324;18.558;2023-04-01T00:04:49;24.70;;;8.18;;
42912;SDS011;50720;54.324;18.558;2023-04-01T00:07:20;41.55;;;8.55;;
42912;SDS011;50720;54.324;18.558;2023-04-01T00:09:56;29.00;;;8.38;;
42912;SDS011;50720;54.324;18.558;2023-04-01T00:12:26;30.45;;;8.68;;
42912;SDS011;50720;54.324;18.558;2023-04-01T00:14:56;32.03;;;8.27;;
42912;SDS011;50720;54.324;18.558;2023-04-01T00:17:26;36.93;;;10.17;;
42912;SDS011;50720;54.324;18.558;2023-04-01T00:19:56;51.08;;;9.75;;
42912;SDS011;50720;54.324;18.558;2023-04-01T00:22:28;34.00;;;10.00;;
42912;SDS011;50720;54.324;18.558;2023-04-01T00:24:57;48.45;;;9.85;;
42912;SDS011;50720;54.324;18.558;2023-04-01T00:27:27;25.90;;;9.10;;
42912;SDS011;50720;54.324;18.558;2023-04-01T00:29:57;34.22;;;8.70;;
42912;SDS011;50720;54.324;18.558;2023-04-01T00:32:26;44.05;;;9.77;;
42912;SDS011;50720;54.324;18.558;2023-04-01T00:34:57;35.53;;;7.95;;
42912;SDS011;50720;54.324;18.558;2023-04-01T00:37:30;32.50;;;7.88;;
42912;SDS011;50720;54.324;18.558;2023-04-01T00:39:59;33.45;;;7.72;;
42912;SDS011;50720;54.324;18.558;2023-04-01T00:42:29;32.85;;;10.52;;
42912;SDS011;50720;54.324;18.558;2023-04-01T00:44:58;35.22;;;7.38;;
42912;SDS011;50720;54.324;18.558;2023-04-01T00:47:53;26.23;;;7.88;;
42912;SDS011;50720;54.324;18.558;2023-04-01T00:50:24;34.60;;;7.50;;
42912;SDS011;50720;54.324;18.558;2023-04-01T00:52:57;42.75;;;8.02;;
42912;SDS011;50720;54.324;18.558;2023-04-01T00:55:29;40.95;;;8.00;;
42912;SDS011;50720;54.324;18.558;2023-04-01T00:58:01;40.80;;;8.95;;
42912;SDS011;50720;54.324;18.558;2023-04-01T01:00:33;27.52;;;8.40;;
42912;SDS011;50720;54.324;18.558;2023-04-01T01:03:04;23.77;;;7.68;;
42912;SDS011;50720;54.324;18.558;2023-04-01T01:05:38;36.58;;;10.05;;
42912;SDS011;50720;54.324;18.558;2023-04-01T01:08:28;17.85;;;8.13;;
42912;SDS011;50720;54.324;18.558;2023-04-01T01:11:08;21.27;;;9.27;;
42912;SDS011;50720;54.324;18.558;2023-04-01T01:13:41;20.38;;;8.40;;
42912;SDS011;50720;54.324;18.558;2023-04-01T01:16:18;18.98;;;8.82;;
42912;SDS011;50720;54.324;18.558;2023-04-01T01:18:55;19.35;;;9.52;;
42912;SDS011;50720;54.324;18.558;2023-04-01T01:21:44;19.50;;;9.48;;
42912;SDS011;50720;54.324;18.558;2023-04-01T01:24:31;18.98;;;9.98;;
42912;SDS011;50720;54.324;18.558;2023-04-01T01:27:18;18.63;;;9.25;;
42912;SDS011;50720;54.324;18.558;2023-04-01T01:30:02;17.70;;;9.57;;
42912;SDS011;50720;54.324;18.558;2023-04-01T01:32:54;17.50;;;9.63;;
42912;SDS011;50720;54.324;18.558;2023-04-01T01:35:36;18.65;;;10.05;;
42912;SDS011;50720;54.324;18.558;2023-04-01T01:38:10;20.75;;;10.75;;
42912;SDS011;50720;54.324;18.558;2023-04-01T01:40:44;20.58;;;10.70;;
42912;SDS011;50720;54.324;18.558;2023-04-01T01:43:19;24.02;;;11.05;;
42912;SDS011;50720;54.324;18.558;2023-04-01T01:45:54;21.48;;;10.77;;
42912;SDS011;50720;54.324;18.558;2023-04-01T01:48:27;19.02;;;11.13;;
42912;SDS011;50720;54.324;18.558;2023-04-01T01:51:01;19.25;;;11.23;;
42912;SDS011;50720;54.324;18.558;2023-04-01T01:53:32;20.27;;;11.52;;
42912;SDS011;50720;54.324;18.558;2023-04-01T01:56:02;22.45;;;12.23;;
42912;SDS011;50720;54.324;18.558;2023-04-01T01:58:32;25.05;;;11.65;;
42912;SDS011;50720;54.324;18.558;2023-04-01T02:01:08;22.02;;;13.00;;
42912;SDS011;50720;54.324;18.558;2023-04-01T02:03:42;23.88;;;13.13;;
42912;SDS011;50720;54.324;18.558;2023-04-01T02:06:17;25.08;;;13.65;;
42912;SDS011;50720;54.324;18.558;2023-04-01T02:08:49;26.48;;;13.60;;
42912;SDS011;50720;54.324;18.558;2023-04-01T02:11:23;19.45;;;12.57;;
42912;SDS011;50720;54.324;18.558;2023-04-01T02:13:58;22.45;;;12.68;;
42912;SDS011;50720;54.324;18.558;2023-04-01T02:16:34;27.33;;;12.55;;
42912;SDS011;50720;54.324;18.558;2023-04-01T02:19:08;20.77;;;12.40;;
42912;SDS011;50720;54.324;18.558;2023-04-01T02:21:41;18.33;;;10.85;;
42912;SDS011;50720;54.324;18.558;2023-04-01T02:24:13;18.92;;;10.75;;
42912;SDS011;50720;54.324;18.558;2023-04-01T02:26:44;19.60;;;11.70;;
42912;SDS011;50720;54.324;18.558;2023-04-01T02:29:14;17.77;;;10.67;;
42912;SDS011;50720;54.324;18.558;2023-04-01T02:31:46;12.10;;;8.13;;
42912;SDS011;50720;54.324;18.558;2023-04-01T02:34:17;8.98;;;6.70;;
42912;SDS011;50720;54.324;18.558;2023-04-01T02:39:20;12.13;;;6.88;;
42912;SDS011;50720;54.324;18.558;2023-04-01T02:41:50;8.93;;;6.37;;
42912;SDS011;50720;54.324;18.558;2023-04-01T02:44:20;9.10;;;6.78;;
42912;SDS011;50720;54.324;18.558;2023-04-01T02:46:49;9.25;;;6.43;;
42912;SDS011;50720;54.324;18.558;2023-04-01T02:49:19;10.27;;;6.85;;
42912;SDS011;50720;54.324;18.558;2023-04-01T02:51:51;9.98;;;6.40;;
42912;SDS011;50720;54.324;18.558;2023-04-01T02:54:20;10.50;;;6.65;;
42912;SDS011;50720;54.324;18.558;2023-04-01T02:56:50;11.90;;;6.03;;
42912;SDS011;50720;54.324;18.558;2023-04-01T02:59:19;9.18;;;6.18;;
42912;SDS011;50720;54.324;18.558;2023-04-01T03:01:49;9.85;;;5.63;;
42912;SDS011;50720;54.324;18.558;2023-04-01T03:04:19;8.05;;;6.00;;
42912;SDS011;50720;54.324;18.558;2023-04-01T03:06:48;4.95;;;4.20;;
42912;SDS011;50720;54.324;18.558;2023-04-01T03:11:49;8.27;;;5.00;;
42912;SDS011;50720;54.324;18.558;2023-04-01T03:14:18;7.60;;;4.57;;
42912;SDS011;50720;54.324;18.558;2023-04-01T03:16:48;8.93;;;4.75;;
42912;SDS011;50720;54.324;18.558;2023-04-01T03:19:18;9.15;;;5.35;;
42912;SDS011;50720;54.324;18.558;2023-04-01T03:21:48;8.02;;;5.03;;
42912;SDS011;50720;54.324;18.558;2023-04-01T03:24:19;6.72;;;4.90;;
42912;SDS011;50720;54.324;18.558;2023-04-01T03:26:49;7.78;;;5.57;;
42912;SDS011;50720;54.324;18.558;2023-04-01T03:29:18;7.68;;;5.05;;
42912;SDS011;50720;54.324;18.558;2023-04-01T03:31:48;6.45;;;4.63;;
42912;SDS011;50720;54.324;18.558;2023-04-01T03:34:17;7.97;;;4.82;;
42912;SDS011;50720;54.324;18.558;2023-04-01T03:36:47;7.15;;;4.50;;
42912;SDS011;50720;54.324;18.558;2023-04-01T03:39:16;5.75;;;4.88;;
42912;SDS011;50720;54.324;18.558;2023-04-01T03:41:48;5.55;;;4.28;;
42912;SDS011;50720;54.324;18.558;2023-04-01T03:44:17;6.72;;;4.78;;
42912;SDS011;50720;54.324;18.558;2023-04-01T03:46:47;6.47;;;4.60;;
42912;SDS011;50720;54.324;18.558;2023-04-01T03:49:17;7.00;;;5.18;;
42912;SDS011;50720;54.324;18.558;2023-04-01T03:51:46;7.28;;;5.65;;
42912;SDS011;50720;54.324;18.558;2023-04-01T03:54:16;7.57;;;5.70;;
42912;SDS011;50720;54.324;18.558;2023-04-01T03:56:48;6.65;;;5.13;;
42912;SDS011;50720;54.324;18.558;2023-04-01T03:59:18;8.18;;;5.00;;
42912;SDS011;50720;54.324;18.558;2023-04-01T04:01:48;7.63;;;5.13;;
42912;SDS011;50720;54.324;18.558;2023-04-01T04:04:17;8.45;;;4.65;;
42912;SDS011;50720;54.324;18.558;2023-04-01T04:06:47;7.25;;;4.60;;
42912;SDS011;50720;54.324;18.558;2023-04-01T04:09:19;5.10;;;4.03;;
42912;SDS011;50720;54.324;18.558;2023-04-01T04:11:49;5.15;;;3.80;;
42912;SDS011;50720;54.324;18.558;2023-04-01T04:14:18;8.05;;;4.53;;
42912;SDS011;50720;54.324;18.558;2023-04-01T04:16:48;7.07;;;4.70;;
42912;SDS011;50720;54.324;18.558;2023-04-01T04:19:17;10.05;;;5.10;;
42912;SDS011;50720;54.324;18.558;2023-04-01T04:21:47;6.70;;;5.27;;
42912;SDS011;50720;54.324;18.558;2023-04-01T04:24:19;7.63;;;5.25;;
42912;SDS011;50720;54.324;18.558;2023-04-01T04:26:48;9.02;;;6.63;;
42912;SDS011;50720;54.324;18.558;2023-04-01T04:29:18;9.60;;;6.18;;
42912;SDS011;50720;54.324;18.558;2023-04-01T04:31:48;11.65;;;6.97;;
42912;SDS011;50720;54.324;18.558;2023-04-01T04:34:17;10.68;;;7.03;;
42912;SDS011;50720;54.324;18.558;2023-04-01T04:39:19;7.13;;;5.90;;
42912;SDS011;50720;54.324;18.558;2023-04-01T04:41:49;10.90;;;7.18;;
42912;SDS011;50720;54.324;18.558;2023-04-01T04:44:18;11.15;;;5.18;;
42912;SDS011;50720;54.324;18.558;2023-04-01T04:46:49;7.53;;;5.15;;
42912;SDS011;50720;54.324;18.558;2023-04-01T04:49:18;12.38;;;5.45;;
42912;SDS011;50720;54.324;18.558;2023-04-01T04:51:48;7.88;;;5.05;;
42912;SDS011;50720;54.324;18.558;2023-04-01T04:54:20;6.00;;;4.32;;
42912;SDS011;50720;54.324;18.558;2023-04-01T04:56:50;9.18;;;5.35;;
42912;SDS011;50720;54.324;18.558;2023-04-01T04:59:20;9.98;;;5.13;;
42912;SDS011;50720;54.324;18.558;2023-04-01T05:01:51;7.47;;;5.22;;
42912;SDS011;50720;54.324;18.558;2023-04-01T05:04:20;14.73;;;5.22;;
42912;SDS011;50720;54.324;18.558;2023-04-01T05:06:50;13.07;;;5.55;;
42912;SDS011;50720;54.324;18.558;2023-04-01T05:09:21;18.05;;;6.00;;
42912;SDS011;50720;54.324;18.558;2023-04-01T05:11:50;20.33;;;7.25;;
42912;SDS011;50720;54.324;18.558;2023-04-01T05:14:20;18.10;;;5.40;;
42912;SDS011;50720;54.324;18.558;2023-04-01T05:16:50;18.15;;;5.72;;
42912;SDS011;50720;54.324;18.558;2023-04-01T05:19:21;24.70;;;6.68;;
42912;SDS011;50720;54.324;18.558;2023-04-01T05:21:51;13.25;;;6.25;;
42912;SDS011;50720;54.324;18.558;2023-04-01T05:24:23;13.93;;;6.97;;
42912;SDS011;50720;54.324;18.558;2023-04-01T05:26:53;21.50;;;7.18;;
42912;SDS011;50720;54.324;18.558;2023-04-01T05:29:23;19.70;;;7.03;;
42912;SDS011;50720;54.324;18.558;2023-04-01T05:31:54;20.13;;;5.97;;
42912;SDS011;50720;54.324;18.558;2023-04-01T05:34:23;12.40;;;5.50;;
42912;SDS011;50720;54.324;18.558;2023-04-01T05:36:53;23.67;;;5.78;;
42912;SDS011;50720;54.324;18.558;2023-04-01T05:39:24;21.50;;;5.70;;
42912;SDS011;50720;54.324;18.558;2023-04-01T05:41:54;20.05;;;5.40;;
42912;SDS011;50720;54.324;18.558;2023-04-01T05:44:23;12.32;;;5.40;;
42912;SDS011;50720;54.324;18.558;2023-04-01T05:46:53;37.00;;;12.45;;
42912;SDS011;50720;54.324;18.558;2023-04-01T05:49:23;33.17;;;6.35;;
42912;SDS011;50720;54.324;18.558;2023-04-01T05:51:55;47.58;;;7.95;;
42912;SDS011;50720;54.324;18.558;2023-04-01T05:54:26;59.50;;;8.00;;
42912;SDS011;50720;54.324;18.558;2023-04-01T05:56:56;42.00;;;7.43;;
42912;SDS011;50720;54.324;18.558;2023-04-01T05:59:26;43.70;;;6.65;;
42912;SDS011;50720;54.324;18.558;2023-04-01T06:01:56;20.98;;;5.43;;
42912;SDS011;50720;54.324;18.558;2023-04-01T06:04:26;49.55;;;7.32;;
42912;SDS011;50720;54.324;18.558;2023-04-01T06:07:05;43.80;;;6.75;;
42912;SDS011;50720;54.324;18.558;2023-04-01T06:09:40;79.07;;;8.80;;
42912;SDS011;50720;54.324;18.558;2023-04-01T06:15:12;38.05;;;5.68;;
42912;SDS011;50720;54.324;18.558;2023-04-01T06:20:57;27.67;;;5.13;;
42912;SDS011;50720;54.324;18.558;2023-04-01T06:23:38;27.90;;;5.18;;
42912;SDS011;50720;54.324;18.558;2023-04-01T06:26:21;26.60;;;6.65;;
42912;SDS011;50720;54.324;18.558;2023-04-01T06:29:03;21.15;;;6.72;;
42912;SDS011;50720;54.324;18.558;2023-04-01T06:31:58;10.75;;;4.82;;
42912;SDS011;50720;54.324;18.558;2023-04-01T06:34:51;5.57;;;3.50;;
42912;SDS011;50720;54.324;18.558;2023-04-01T06:37:36;7.20;;;3.78;;
42912;SDS011;50720;54.324;18.558;2023-04-01T06:40:30;12.80;;;3.58;;
42912;SDS011;50720;54.324;18.558;2023-04-01T06:43:23;4.13;;;2.75;;
42912;SDS011;50720;54.324;18.558;2023-04-01T06:46:01;5.95;;;2.50;;
42912;SDS011;50720;54.324;18.558;2023-04-01T06:48:39;4.50;;;2.00;;
42912;SDS011;50720;54.324;18.558;2023-04-01T06:51:22;5.95;;;1.92;;
42912;SDS011;50720;54.324;18.558;2023-04-01T06:53:58;4.30;;;2.40;;
42912;SDS011;50720;54.324;18.558;2023-04-01T06:56:33;2.38;;;1.55;;
42912;SDS011;50720;54.324;18.558;2023-04-01T06:59:11;4.68;;;2.28;;
42912;SDS011;50720;54.324;18.558;2023-04-01T07:01:45;3.42;;;2.00;;
42912;SDS011;50720;54.324;18.558;2023-04-01T07:04:18;2.70;;;1.60;;
42912;SDS011;50720;54.324;18.558;2023-04-01T07:06:53;2.17;;;1.00;;
42912;SDS011;50720;54.324;18.558;2023-04-01T07:09:26;2.42;;;1.58;;
42912;SDS011;50720;54.324;18.558;2023-04-01T07:12:01;3.53;;;1.77;;
42912;SDS011;50720;54.324;18.558;2023-04-01T07:14:36;2.80;;;1.63;;
42912;SDS011;50720;54.324;18.558;2023-04-01T07:17:10;3.45;;;1.85;;
42912;SDS011;50720;54.324;18.558;2023-04-01T07:19:45;4.88;;;1.80;;
42912;SDS011;50720;54.324;18.558;2023-04-01T07:22:21;3.38;;;2.00;;
42912;SDS011;50720;54.324;18.558;2023-04-01T07:24:57;6.22;;;2.45;;
42912;SDS011;50720;54.324;18.558;2023-04-01T07:27:32;2.50;;;1.75;;
42912;SDS011;50720;54.324;18.558;2023-04-01T07:30:06;4.35;;;2.08;;
42912;SDS011;50720;54.324;18.558;2023-04-01T07:32:44;2.35;;;1.98;;
42912;SDS011;50720;54.324;18.558;2023-04-01T07:35:21;1.83;;;1.40;;
42912;SDS011;50720;54.324;18.558;2023-04-01T07:38:08;3.65;;;1.85;;
42912;SDS011;50720;54.324;18.558;2023-04-01T07:40:46;2.85;;;1.90;;
42912;SDS011;50720;54.324;18.558;2023-04-01T07:43:29;4.38;;;2.58;;
42912;SDS011;50720;54.324;18.558;2023-04-01T07:46:12;2.72;;;1.90;;
42912;SDS011;50720;54.324;18.558;2023-04-01T07:48:53;6.70;;;2.20;;
42912;SDS011;50720;54.324;18.558;2023-04-01T07:51:28;4.53;;;2.20;;
42912;SDS011;50720;54.324;18.558;2023-04-01T07:54:08;3.55;;;2.20;;
42912;SDS011;50720;54.324;18.558;2023-04-01T07:56:44;3.17;;;2.55;;
42912;SDS011;50720;54.324;18.558;2023-04-01T07:59:21;4.65;;;1.95;;
42912;SDS011;50720;54.324;18.558;2023-04-01T08:01:58;4.15;;;1.98;;
42912;SDS011;50720;54.324;18.558;2023-04-01T08:04:39;3.78;;;1.67;;
42912;SDS011;50720;54.324;18.558;2023-04-01T08:07:20;4.22;;;2.35;;
42912;SDS011;50720;54.324;18.558;2023-04-01T08:09:55;5.10;;;2.05;;
42912;SDS011;50720;54.324;18.558;2023-04-01T08:12:35;3.30;;;2.45;;
42912;SDS011;50720;54.324;18.558;2023-04-01T08:15:13;5.55;;;2.30;;
42912;SDS011;50720;54.324;18.558;2023-04-01T08:17:54;5.05;;;2.10;;
42912;SDS011;50720;54.324;18.558;2023-04-01T08:20:34;3.33;;;2.10;;
42912;SDS011;50720;54.324;18.558;2023-04-01T08:23:10;5.57;;;2.65;;
42912;SDS011;50720;54.324;18.558;2023-04-01T08:25:45;6.32;;;3.40;;
42912;SDS011;50720;54.324;18.558;2023-04-01T08:28:20;4.22;;;2.45;;
42912;SDS011;50720;54.324;18.558;2023-04-01T08:30:56;3.80;;;2.17;;
42912;SDS011;50720;54.324;18.558;2023-04-01T08:33:33;3.35;;;2.05;;
42912;SDS011;50720;54.324;18.558;2023-04-01T08:36:03;6.30;;;2.67;;
42912;SDS011;50720;54.324;18.558;2023-04-01T08:38:38;6.28;;;3.25;;
42912;SDS011;50720;54.324;18.558;2023-04-01T08:41:20;7.28;;;3.83;;
42912;SDS011;50720;54.324;18.558;2023-04-01T08:44:24;4.35;;;2.67;;
42912;SDS011;50720;54.324;18.558;2023-04-01T08:47:23;5.55;;;3.90;;
42912;SDS011;50720;54.324;18.558;2023-04-01T08:52:58;5.82;;;2.65;;
42912;SDS011;50720;54.324;18.558;2023-04-01T08:55:36;6.47;;;2.15;;
42912;SDS011;50720;54.324;18.558;2023-04-01T08:58:22;2.00;;;1.65;;
42912;SDS011;50720;54.324;18.558;2023-04-01T09:01:19;5.50;;;2.22;;
42912;SDS011;50720;54.324;18.558;2023-04-01T09:04:25;6.30;;;2.70;;
42912;SDS011;50720;54.324;18.558;2023-04-01T09:07:32;3.60;;;1.75;;
42912;SDS011;50720;54.324;18.558;2023-04-01T09:10:18;5.40;;;2.10;;
42912;SDS011;50720;54.324;18.558;2023-04-01T09:16:13;2.92;;;2.00;;
42912;SDS011;50720;54.324;18.558;2023-04-01T09:21:43;3.78;;;1.95;;
42912;SDS011;50720;54.324;18.558;2023-04-01T09:27:39;4.38;;;1.50;;
42912;SDS011;50720;54.324;18.558;2023-04-01T09:36:11;4.95;;;1.85;;
42912;SDS011;50720;54.324;18.558;2023-04-01T09:38:52;2.88;;;1.25;;
42912;SDS011;50720;54.324;18.558;2023-04-01T09:41:31;7.53;;;1.27;;
42912;SDS011;50720;54.324;18.558;2023-04-01T09:44:01;3.10;;;1.60;;
42912;SDS011;50720;54.324;18.558;2023-04-01T09:46:35;2.38;;;1.40;;
42912;SDS011;50720;54.324;18.558;2023-04-01T09:49:25;4.32;;;1.08;;
42912;SDS011;50720;54.324;18.558;2023-04-01T09:52:16;1.52;;;1.10;;
42912;SDS011;50720;54.324;18.558;2023-04-01T09:57:34;2.15;;;1.02;;
42912;SDS011;50720;54.324;18.558;2023-04-01T10:00:30;5.15;;;1.30;;
42912;SDS011;50720;54.324;18.558;2023-04-01T10:06:27;2.20;;;1.02;;
42912;SDS011;50720;54.324;18.558;2023-04-01T10:12:49;2.33;;;1.42;;
42912;SDS011;50720;54.324;18.558;2023-04-01T10:24:35;4.05;;;2.00;;
42912;SDS011;50720;54.324;18.558;2023-04-01T10:27:33;0.98;;;0.50;;
42912;SDS011;50720;54.324;18.558;2023-04-01T10:36:32;2.15;;;1.17;;
42912;SDS011;50720;54.324;18.558;2023-04-01T10:48:57;2.53;;;0.82;;
42912;SDS011;50720;54.324;18.558;2023-04-01T10:51:54;1.55;;;1.08;;
42912;SDS011;50720;54.324;18.558;2023-04-01T10:58:14;1.40;;;0.98;;
42912;SDS011;50720;54.324;18.558;2023-04-01T11:04:23;2.10;;;1.10;;
42912;SDS011;50720;54.324;18.558;2023-04-01T11:07:16;2.42;;;1.02;;
42912;SDS011;50720;54.324;18.558;2023-04-01T11:16:50;1.50;;;0.75;;
42912;SDS011;50720;54.324;18.558;2023-04-01T11:19:52;1.15;;;0.80;;
42912;SDS011;50720;54.324;18.558;2023-04-01T11:22:55;1.38;;;0.70;;
42912;SDS011;50720;54.324;18.558;2023-04-01T11:31:23;1.70;;;1.17;;
42912;SDS011;50720;54.324;18.558;2023-04-01T11:34:07;2.08;;;1.00;;
42912;SDS011;50720;54.324;18.558;2023-04-01T11:36:54;1.95;;;0.90;;
42912;SDS011;50720;54.324;18.558;2023-04-01T11:39:33;2.75;;;1.13;;
42912;SDS011;50720;54.324;18.558;2023-04-01T11:42:14;1.65;;;1.13;;
42912;SDS011;50720;54.324;18.558;2023-04-01T11:47:35;3.42;;;1.60;;
42912;SDS011;50720;54.324;18.558;2023-04-01T11:52:55;1.73;;;0.63;;
42912;SDS011;50720;54.324;18.558;2023-04-01T11:56:01;1.90;;;1.00;;
42912;SDS011;50720;54.324;18.558;2023-04-01T11:58:47;2.00;;;0.80;;
42912;SDS011;50720;54.324;18.558;2023-04-01T12:01:29;2.05;;;0.93;;
42912;SDS011;50720;54.324;18.558;2023-04-01T12:04:17;6.35;;;0.98;;
42912;SDS011;50720;54.324;18.558;2023-04-01T12:07:16;4.60;;;0.98;;
42912;SDS011;50720;54.324;18.558;2023-04-01T12:09:56;2.10;;;1.15;;
42912;SDS011;50720;54.324;18.558;2023-04-01T12:12:35;1.30;;;1.05;;
42912;SDS011;50720;54.324;18.558;2023-04-01T12:15:26;2.55;;;1.10;;
42912;SDS011;50720;54.324;18.558;2023-04-01T12:18:06;2.72;;;1.00;;
42912;SDS011;50720;54.324;18.558;2023-04-01T12:20:48;2.42;;;0.63;;
42912;SDS011;50720;54.324;18.558;2023-04-01T12:23:26;2.45;;;1.25;;
42912;SDS011;50720;54.324;18.558;2023-04-01T12:26:22;2.85;;;1.13;;
42912;SDS011;50720;54.324;18.558;2023-04-01T12:29:07;1.73;;;1.00;;
42912;SDS011;50720;54.324;18.558;2023-04-01T12:32:15;2.92;;;1.40;;
42912;SDS011;50720;54.324;18.558;2023-04-01T12:34:54;4.13;;;1.10;;
42912;SDS011;50720;54.324;18.558;2023-04-01T12:37:45;2.90;;;1.02;;
42912;SDS011;50720;54.324;18.558;2023-04-01T12:40:28;1.40;;;1.25;;
42912;SDS011;50720;54.324;18.558;2023-04-01T12:43:14;2.40;;;0.95;;
42912;SDS011;50720;54.324;18.558;2023-04-01T12:46:03;1.48;;;0.88;;
42912;SDS011;50720;54.324;18.558;2023-04-01T12:48:41;3.35;;;1.02;;
42912;SDS011;50720;54.324;18.558;2023-04-01T12:51:36;1.83;;;0.93;;
42912;SDS011;50720;54.324;18.558;2023-04-01T12:54:27;3.75;;;1.50;;
42912;SDS011;50720;54.324;18.558;2023-04-01T12:57:22;1.90;;;0.95;;
42912;SDS011;50720;54.324;18.558;2023-04-01T13:00:20;5.15;;;1.30;;
42912;SDS011;50720;54.324;18.558;2023-04-01T13:03:14;1.60;;;1.20;;
42912;SDS011;50720;54.324;18.558;2023-04-01T13:08:56;2.67;;;0.88;;
42912;SDS011;50720;54.324;18.558;2023-04-01T13:11:48;1.23;;;0.80;;
42912;SDS011;50720;54.324;18.558;2023-04-01T13:17:40;1.23;;;0.80;;
42912;SDS011;50720;54.324;18.558;2023-04-01T13:20:16;0.90;;;0.80;;
42912;SDS011;50720;54.324;18.558;2023-04-01T13:23:01;0.90;;;0.57;;
42912;SDS011;50720;54.324;18.558;2023-04-01T13:25:42;1.15;;;0.80;;
42912;SDS011;50720;54.324;18.558;2023-04-01T13:28:38;1.80;;;1.70;;
42912;SDS011;50720;54.324;18.558;2023-04-01T13:31:24;3.20;;;1.08;;
42912;SDS011;50720;54.324;18.558;2023-04-01T13:34:06;2.75;;;1.52;;
42912;SDS011;50720;54.324;18.558;2023-04-01T13:36:49;2.63;;;1.35;;
42912;SDS011;50720;54.324;18.558;2023-04-01T13:39:41;2.33;;;1.58;;
42912;SDS011;50720;54.324;18.558;2023-04-01T13:42:31;2.85;;;1.33;;
42912;SDS011;50720;54.324;18.558;2023-04-01T13:45:10;4.15;;;1.02;;
42912;SDS011;50720;54.324;18.558;2023-04-01T13:48:08;2.78;;;1.20;;
42912;SDS011;50720;54.324;18.558;2023-04-01T13:50:58;1.33;;;0.98;;
42912;SDS011;50720;54.324;18.558;2023-04-01T13:56:55;3.67;;;1.63;;
42912;SDS011;50720;54.324;18.558;2023-04-01T14:02:47;4.57;;;2.55;;
42912;SDS011;50720;54.324;18.558;2023-04-01T14:05:32;6.20;;;2.28;;
42912;SDS011;50720;54.324;18.558;2023-04-01T14:08:17;4.53;;;2.08;;
42912;SDS011;50720;54.324;18.558;2023-04-01T14:10:57;3.97;;;1.73;;
42912;SDS011;50720;54.324;18.558;2023-04-01T14:13:38;6.25;;;1.67;;
42912;SDS011;50720;54.324;18.558;2023-04-01T14:16:26;3.60;;;2.00;;
42912;SDS011;50720;54.324;18.558;2023-04-01T14:19:19;2.95;;;1.65;;
42912;SDS011;50720;54.324;18.558;2023-04-01T14:22:01;6.63;;;2.72;;
42912;SDS011;50720;54.324;18.558;2023-04-01T14:24:43;3.67;;;1.80;;
42912;SDS011;50720;54.324;18.558;2023-04-01T14:27:24;5.53;;;2.08;;
42912;SDS011;50720;54.324;18.558;2023-04-01T14:33:11;7.85;;;2.00;;
42912;SDS011;50720;54.324;18.558;2023-04-01T14:35:55;3.72;;;2.05;;
42912;SDS011;50720;54.324;18.558;2023-04-01T14:38:50;3.53;;;2.35;;
42912;SDS011;50720;54.324;18.558;2023-04-01T14:41:32;5.30;;;2.30;;
42912;SDS011;50720;54.324;18.558;2023-04-01T14:50:06;8.07;;;2.80;;
42912;SDS011;50720;54.324;18.558;2023-04-01T14:52:42;8.93;;;2.67;;
42912;SDS011;50720;54.324;18.558;2023-04-01T14:55:25;4.95;;;2.28;;
42912;SDS011;50720;54.324;18.558;2023-04-01T14:58:07;6.30;;;2.95;;
42912;SDS011;50720;54.324;18.558;2023-04-01T15:00:48;5.32;;;2.78;;
42912;SDS011;50720;54.324;18.558;2023-04-01T15:03:25;7.25;;;3.60;;
42912;SDS011;50720;54.324;18.558;2023-04-01T15:06:07;9.15;;;3.03;;
42912;SDS011;50720;54.324;18.558;2023-04-01T15:11:35;4.13;;;2.58;;
42912;SDS011;50720;54.324;18.558;2023-04-01T15:17:16;5.97;;;3.83;;
42912;SDS011;50720;54.324;18.558;2023-04-01T15:20:02;6.32;;;4.32;;
42912;SDS011;50720;54.324;18.558;2023-04-01T15:22:59;8.77;;;4.00;;
42912;SDS011;50720;54.324;18.558;2023-04-01T15:25:46;11.85;;;5.03;;
42912;SDS011;50720;54.324;18.558;2023-04-01T15:28:39;12.98;;;5.15;;
42912;SDS011;50720;54.324;18.558;2023-04-01T15:31:17;14.65;;;5.07;;
42912;SDS011;50720;54.324;18.558;2023-04-01T15:33:55;15.90;;;5.85;;
42912;SDS011;50720;54.324;18.558;2023-04-01T15:36:36;12.50;;;5.40;;
42912;SDS011;50720;54.324;18.558;2023-04-01T15:39:13;12.43;;;4.65;;
42912;SDS011;50720;54.324;18.558;2023-04-01T15:41:51;7.47;;;4.07;;
42912;SDS011;50720;54.324;18.558;2023-04-01T15:44:39;9.55;;;5.07;;
42912;SDS011;50720;54.324;18.558;2023-04-01T15:50:22;5.97;;;3.75;;
42912;SDS011;50720;54.324;18.558;2023-04-01T15:53:23;10.65;;;4.93;;
42912;SDS011;50720;54.324;18.558;2023-04-01T15:56:11;6.82;;;3.92;;
42912;SDS011;50720;54.324;18.558;2023-04-01T15:59:11;11.05;;;5.35;;
42912;SDS011;50720;54.324;18.558;2023-04-01T16:01:55;11.15;;;4.88;;
42912;SDS011;50720;54.324;18.558;2023-04-01T16:04:40;12.82;;;5.22;;
42912;SDS011;50720;54.324;18.558;2023-04-01T16:07:21;7.60;;;4.05;;
42912;SDS011;50720;54.324;18.558;2023-04-01T16:10:21;10.80;;;4.70;;
42912;SDS011;50720;54.324;18.558;2023-04-01T16:13:13;7.65;;;4.32;;
42912;SDS011;50720;54.324;18.558;2023-04-01T16:15:59;10.23;;;4.83;;
42912;SDS011;50720;54.324;18.558;2023-04-01T16:18:42;13.77;;;6.25;;
42912;SDS011;50720;54.324;18.558;2023-04-01T16:21:25;10.52;;;5.05;;
42912;SDS011;50720;54.324;18.558;2023-04-01T16:26:39;10.30;;;4.63;;
42912;SDS011;50720;54.324;18.558;2023-04-01T16:29:17;10.60;;;4.50;;
42912;SDS011;50720;54.324;18.558;2023-04-01T16:31:55;10.80;;;4.57;;
42912;SDS011;50720;54.324;18.558;2023-04-01T16:34:36;16.23;;;6.20;;
42912;SDS011;50720;54.324;18.558;2023-04-01T16:37:10;8.80;;;5.20;;
42912;SDS011;50720;54.324;18.558;2023-04-01T16:39:45;6.57;;;4.05;;
42912;SDS011;50720;54.324;18.558;2023-04-01T16:42:24;9.65;;;4.75;;
42912;SDS011;50720;54.324;18.558;2023-04-01T16:45:08;11.20;;;4.97;;
42912;SDS011;50720;54.324;18.558;2023-04-01T16:47:49;12.48;;;5.35;;
42912;SDS011;50720;54.324;18.558;2023-04-01T16:50:23;10.52;;;4.80;;
42912;SDS011;50720;54.324;18.558;2023-04-01T16:52:59;10.25;;;4.97;;
42912;SDS011;50720;54.324;18.558;2023-04-01T16:55:43;8.07;;;3.97;;
42912;SDS011;50720;54.324;18.558;2023-04-01T16:58:20;7.40;;;3.72;;
42912;SDS011;50720;54.324;18.558;2023-04-01T17:00:55;8.30;;;4.22;;
42912;SDS011;50720;54.324;18.558;2023-04-01T17:03:32;5.82;;;4.03;;
42912;SDS011;50720;54.324;18.558;2023-04-01T17:06:11;11.20;;;4.68;;
42912;SDS011;50720;54.324;18.558;2023-04-01T17:12:00;13.70;;;4.88;;
42912;SDS011;50720;54.324;18.558;2023-04-01T17:14:39;8.23;;;4.13;;
42912;SDS011;50720;54.324;18.558;2023-04-01T17:17:20;7.30;;;4.47;;
42912;SDS011;50720;54.324;18.558;2023-04-01T17:20:04;7.05;;;4.78;;
42912;SDS011;50720;54.324;18.558;2023-04-01T17:22:51;7.03;;;4.15;;
42912;SDS011;50720;54.324;18.558;2023-04-01T17:25:38;7.85;;;4.57;;
42912;SDS011;50720;54.324;18.558;2023-04-01T17:28:21;10.13;;;4.93;;
42912;SDS011;50720;54.324;18.558;2023-04-01T17:31:02;16.60;;;6.30;;
42912;SDS011;50720;54.324;18.558;2023-04-01T17:33:47;9.55;;;4.82;;
42912;SDS011;50720;54.324;18.558;2023-04-01T17:36:45;7.93;;;4.32;;
42912;SDS011;50720;54.324;18.558;2023-04-01T17:39:35;11.60;;;5.00;;
42912;SDS011;50720;54.324;18.558;2023-04-01T17:42:28;9.40;;;5.63;;
42912;SDS011;50720;54.324;18.558;2023-04-01T17:45:10;13.48;;;5.75;;